sensor_id;sensor_type;location;lat;lon;timestamp;pressure;altitude;pressure_sealevel;temperature;humidity
44872;BME280;30602;51.060;17.226;2023-04-19T00:01:59;102082.19;;;9.99;92.77
44872;BME280;30602;51.060;17.226;2023-04-19T00:05:24;102080.02;;;9.92;92.69
44872;BME280;30602;51.060;17.226;2023-04-19T00:09:29;102076.57;;;9.96;92.80
44872;BME280;30602;51.060;17.226;2023-04-19T00:13:15;102076.55;;;9.94;92.55
44872;BME280;30602;51.060;17.226;2023-04-19T00:17:00;102074.05;;;9.91;92.73
44872;BME280;30602;51.060;17.226;2023-04-19T00:25:08;102074.09;;;9.74;91.51
44872;BME280;30602;51.060;17.226;2023-04-19T00:29:03;102064.46;;;9.62;91.29
44872;BME280;30602;51.060;17.226;2023-04-19T00:32:50;102061.65;;;9.53;91.09
44872;BME280;30602;51.060;17.226;2023-04-19T00:36:25;102058.50;;;9.49;90.66
44872;BME280;30602;51.060;17.226;2023-04-19T00:40:32;102051.70;;;9.39;91.44
44872;BME280;30602;51.060;17.226;2023-04-19T00:44:12;102052.03;;;9.39;91.08
44872;BME280;30602;51.060;17.226;2023-04-19T00:47:37;102045.44;;;9.35;91.52
44872;BME280;30602;51.060;17.226;2023-04-19T00:51:07;102038.64;;;9.37;91.03
44872;BME280;30602;51.060;17.226;2023-04-19T00:55:08;102016.42;;;9.15;89.90
44872;BME280;30602;51.060;17.226;2023-04-19T00:58:49;102033.17;;;9.31;90.04
44872;BME280;30602;51.060;17.226;2023-04-19T01:03:14;102019.39;;;9.28;90.24
44872;BME280;30602;51.060;17.226;2023-04-19T01:07:23;102017.55;;;9.22;91.01
44872;BME280;30602;51.060;17.226;2023-04-19T01:11:36;102016.91;;;9.12;90.47
44872;BME280;30602;51.060;17.226;2023-04-19T01:15:22;102020.52;;;9.03;91.10
44872;BME280;30602;51.060;17.226;2023-04-19T01:19:11;102004.52;;;8.96;91.20
44872;BME280;30602;51.060;17.226;2023-04-19T01:22:36;102017.71;;;8.95;90.88
44872;BME280;30602;51.060;17.226;2023-04-19T01:26:03;102008.91;;;8.86;90.92
44872;BME280;30602;51.060;17.226;2023-04-19T01:30:16;102010.70;;;8.81;91.11
44872;BME280;30602;51.060;17.226;2023-04-19T01:34:42;102008.23;;;8.85;90.11
44872;BME280;30602;51.060;17.226;2023-04-19T01:38:33;102006.12;;;8.83;89.40
44872;BME280;30602;51.060;17.226;2023-04-19T01:42:39;102008.49;;;8.68;88.47
44872;BME280;30602;51.060;17.226;2023-04-19T01:46:01;101999.05;;;8.65;87.43
44872;BME280;30602;51.060;17.226;2023-04-19T01:49:46;101997.99;;;8.53;87.38
44872;BME280;30602;51.060;17.226;2023-04-19T01:57:20;101991.97;;;8.45;87.21
44872;BME280;30602;51.060;17.226;2023-04-19T02:01:32;101990.35;;;8.44;87.77
44872;BME280;30602;51.060;17.226;2023-04-19T02:05:10;101995.13;;;8.35;87.91
44872;BME280;30602;51.060;17.226;2023-04-19T02:08:55;101996.22;;;8.29;86.47
44872;BME280;30602;51.060;17.226;2023-04-19T02:12:19;101993.39;;;8.24;84.40
44872;BME280;30602;51.060;17.226;2023-04-19T02:15:42;101988.45;;;8.18;80.00
44872;BME280;30602;51.060;17.226;2023-04-19T02:19:04;101983.38;;;8.23;77.96
44872;BME280;30602;51.060;17.226;2023-04-19T02:22:42;101984.86;;;8.15;77.65
44872;BME280;30602;51.060;17.226;2023-04-19T02:26:36;101978.71;;;8.18;78.25
44872;BME280;30602;51.060;17.226;2023-04-19T02:30:50;101980.30;;;8.15;79.18
44872;BME280;30602;51.060;17.226;2023-04-19T02:34:26;101979.42;;;8.16;79.73
44872;BME280;30602;51.060;17.226;2023-04-19T02:37:45;101974.55;;;8.11;79.30
44872;BME280;30602;51.060;17.226;2023-04-19T02:41:26;101970.75;;;8.05;79.20
44872;BME280;30602;51.060;17.226;2023-04-19T02:45:05;101968.83;;;7.99;78.36
44872;BME280;30602;51.060;17.226;2023-04-19T02:48:24;101965.57;;;7.84;76.70
44872;BME280;30602;51.060;17.226;2023-04-19T02:51:50;101966.78;;;7.79;75.96
44872;BME280;30602;51.060;17.226;2023-04-19T02:59:04;101968.65;;;7.73;74.65
44872;BME280;30602;51.060;17.226;2023-04-19T03:02:42;101960.27;;;7.85;74.15
44872;BME280;30602;51.060;17.226;2023-04-19T03:07:08;101949.11;;;7.72;73.30
44872;BME280;30602;51.060;17.226;2023-04-19T03:11:02;101941.53;;;7.65;71.71
44872;BME280;30602;51.060;17.226;2023-04-19T03:14:44;101937.96;;;7.62;72.05
44872;BME280;30602;51.060;17.226;2023-04-19T03:18:06;101929.09;;;7.52;72.51
44872;BME280;30602;51.060;17.226;2023-04-19T03:21:39;101936.66;;;7.46;72.06
44872;BME280;30602;51.060;17.226;2023-04-19T03:25:21;101932.36;;;7.43;72.04
44872;BME280;30602;51.060;17.226;2023-04-19T03:29:00;101928.94;;;7.23;71.33
44872;BME280;30602;51.060;17.226;2023-04-19T03:33:06;101936.73;;;7.24;71.08
44872;BME280;30602;51.060;17.226;2023-04-19T03:36:44;101938.41;;;7.15;69.88
44872;BME280;30602;51.060;17.226;2023-04-19T03:40:20;101943.13;;;7.05;70.31
44872;BME280;30602;51.060;17.226;2023-04-19T03:44:34;101937.89;;;7.00;69.22
44872;BME280;30602;51.060;17.226;2023-04-19T03:48:25;101935.13;;;7.10;69.54
44872;BME280;30602;51.060;17.226;2023-04-19T03:51:56;101925.84;;;7.06;70.31
44872;BME280;30602;51.060;17.226;2023-04-19T03:55:40;101926.74;;;7.02;70.36
44872;BME280;30602;51.060;17.226;2023-04-19T03:58:59;101931.60;;;7.01;70.40
44872;BME280;30602;51.060;17.226;2023-04-19T04:02:50;101933.94;;;6.95;71.21
44872;BME280;30602;51.060;17.226;2023-04-19T04:06:39;101939.71;;;6.98;72.05
44872;BME280;30602;51.060;17.226;2023-04-19T04:10:01;101940.03;;;6.88;72.40
44872;BME280;30602;51.060;17.226;2023-04-19T04:13:20;101941.30;;;6.79;71.91
44872;BME280;30602;51.060;17.226;2023-04-19T04:17:15;101939.16;;;6.62;72.17
44872;BME280;30602;51.060;17.226;2023-04-19T04:21:09;101943.52;;;6.51;72.52
44872;BME280;30602;51.060;17.226;2023-04-19T04:28:27;101955.93;;;6.40;71.28
44872;BME280;30602;51.060;17.226;2023-04-19T04:32:24;101957.91;;;6.39;71.56
44872;BME280;30602;51.060;17.226;2023-04-19T04:36:35;101959.41;;;6.38;72.65
44872;BME280;30602;51.060;17.226;2023-04-19T04:40:52;101948.70;;;6.03;77.61
44872;BME280;30602;51.060;17.226;2023-04-19T04:44:35;101967.48;;;5.82;84.27
44872;BME280;30602;51.060;17.226;2023-04-19T04:48:26;101958.33;;;5.43;89.04
44872;BME280;30602;51.060;17.226;2023-04-19T04:52:06;101949.87;;;5.37;92.03
44872;BME280;30602;51.060;17.226;2023-04-19T04:56:17;101944.73;;;5.00;95.52
44872;BME280;30602;51.060;17.226;2023-04-19T05:00:18;101946.33;;;4.89;97.06
44872;BME280;30602;51.060;17.226;2023-04-19T05:03:37;101962.34;;;4.88;98.70
44872;BME280;30602;51.060;17.226;2023-04-19T05:06:56;101952.14;;;4.78;99.77
44872;BME280;30602;51.060;17.226;2023-04-19T05:10:14;101959.41;;;4.83;100.00
44872;BME280;30602;51.060;17.226;2023-04-19T05:13:54;101964.73;;;4.82;100.00
44872;BME280;30602;51.060;17.226;2023-04-19T05:18:05;101952.52;;;4.66;100.00
44872;BME280;30602;51.060;17.226;2023-04-19T05:21:52;101959.20;;;4.78;99.81
44872;BME280;30602;51.060;17.226;2023-04-19T05:25:18;101957.76;;;4.74;99.92
44872;BME280;30602;51.060;17.226;2023-04-19T05:28:42;101956.35;;;4.75;99.75
44872;BME280;30602;51.060;17.226;2023-04-19T05:33:50;101950.80;;;4.84;99.53
44872;BME280;30602;51.060;17.226;2023-04-19T05:38:00;101946.53;;;4.84;99.30
44872;BME280;30602;51.060;17.226;2023-04-19T05:42:11;101947.14;;;4.70;99.10
44872;BME280;30602;51.060;17.226;2023-04-19T05:46:24;101945.50;;;4.74;98.44
44872;BME280;30602;51.060;17.226;2023-04-19T05:53:54;101942.20;;;4.69;97.54
44872;BME280;30602;51.060;17.226;2023-04-19T05:57:16;101943.30;;;4.70;96.70
44872;BME280;30602;51.060;17.226;2023-04-19T06:01:22;101939.95;;;4.66;96.99
44872;BME280;30602;51.060;17.226;2023-04-19T06:04:52;101933.27;;;4.72;97.24
44872;BME280;30602;51.060;17.226;2023-04-19T06:08:16;101930.27;;;4.67;95.73
44872;BME280;30602;51.060;17.226;2023-04-19T06:11:58;101934.70;;;4.72;94.81
44872;BME280;30602;51.060;17.226;2023-04-19T06:16:14;101902.02;;;4.36;93.84
44872;BME280;30602;51.060;17.226;2023-04-19T06:19:47;101936.97;;;4.82;93.10
44872;BME280;30602;51.060;17.226;2023-04-19T06:23:26;101942.60;;;4.83;92.95
44872;BME280;30602;51.060;17.226;2023-04-19T06:31:38;101949.55;;;4.82;91.94
44872;BME280;30602;51.060;17.226;2023-04-19T06:35:04;101953.91;;;4.85;92.05
44872;BME280;30602;51.060;17.226;2023-04-19T06:38:45;101955.75;;;4.86;90.58
44872;BME280;30602;51.060;17.226;2023-04-19T06:42:30;101954.49;;;5.02;90.88
44872;BME280;30602;51.060;17.226;2023-04-19T06:46:45;101949.23;;;5.40;91.26
44872;BME280;30602;51.060;17.226;2023-04-19T06:50:05;101951.41;;;5.34;88.15
44872;BME280;30602;51.060;17.226;2023-04-19T06:54:14;101955.66;;;5.34;87.12
44872;BME280;30602;51.060;17.226;2023-04-19T06:58:40;101955.63;;;5.31;87.49
44872;BME280;30602;51.060;17.226;2023-04-19T07:02:42;101959.68;;;5.30;87.02
44872;BME280;30602;51.060;17.226;2023-04-19T07:06:01;101951.18;;;5.27;87.28
44872;BME280;30602;51.060;17.226;2023-04-19T07:14:24;101952.94;;;5.29;86.94
44872;BME280;30602;51.060;17.226;2023-04-19T07:18:11;101950.90;;;5.45;87.14
44872;BME280;30602;51.060;17.226;2023-04-19T07:21:39;101947.54;;;5.42;87.32
44872;BME280;30602;51.060;17.226;2023-04-19T07:25:18;101944.87;;;5.41;88.15
44872;BME280;30602;51.060;17.226;2023-04-19T07:28:45;101942.03;;;5.34;87.46
44872;BME280;30602;51.060;17.226;2023-04-19T07:32:13;101941.03;;;5.22;88.32
44872;BME280;30602;51.060;17.226;2023-04-19T07:37:00;101947.45;;;4.97;87.78
44872;BME280;30602;51.060;17.226;2023-04-19T07:40:43;101947.84;;;4.98;88.75
44872;BME280;30602;51.060;17.226;2023-04-19T07:44:30;101936.53;;;4.80;88.61
44872;BME280;30602;51.060;17.226;2023-04-19T07:48:01;101934.08;;;4.90;89.26
44872;BME280;30602;51.060;17.226;2023-04-19T07:56:10;101925.82;;;5.45;89.25
44872;BME280;30602;51.060;17.226;2023-04-19T08:00:34;101924.17;;;5.58;87.95
44872;BME280;30602;51.060;17.226;2023-04-19T08:04:20;101918.26;;;5.57;87.07
44872;BME280;30602;51.060;17.226;2023-04-19T08:08:01;101923.91;;;5.51;86.25
44872;BME280;30602;51.060;17.226;2023-04-19T08:11:55;101929.57;;;5.58;88.09
44872;BME280;30602;51.060;17.226;2023-04-19T08:15:49;101926.88;;;5.55;88.67
44872;BME280;30602;51.060;17.226;2023-04-19T08:20:00;101923.01;;;5.51;88.06
44872;BME280;30602;51.060;17.226;2023-04-19T08:24:13;101922.60;;;5.39;88.43
44872;BME280;30602;51.060;17.226;2023-04-19T08:27:35;101918.69;;;5.17;89.28
44872;BME280;30602;51.060;17.226;2023-04-19T08:31:18;101918.83;;;5.27;90.54
44872;BME280;30602;51.060;17.226;2023-04-19T08:35:29;101922.79;;;5.17;89.98
44872;BME280;30602;51.060;17.226;2023-04-19T08:39:24;101921.13;;;5.02;90.51
44872;BME280;30602;51.060;17.226;2023-04-19T08:42:43;101920.63;;;5.05;90.98
44872;BME280;30602;51.060;17.226;2023-04-19T08:46:51;101918.43;;;5.26;91.45
44872;BME280;30602;51.060;17.226;2023-04-19T08:50:11;101909.34;;;5.39;89.66
44872;BME280;30602;51.060;17.226;2023-04-19T08:53:43;101904.73;;;5.64;90.03
44872;BME280;30602;51.060;17.226;2023-04-19T08:57:22;101901.77;;;5.78;88.79
44872;BME280;30602;51.060;17.226;2023-04-19T09:01:15;101902.09;;;5.88;88.71
44872;BME280;30602;51.060;17.226;2023-04-19T09:04:45;101905.77;;;6.12;87.64
44872;BME280;30602;51.060;17.226;2023-04-19T09:13:20;101898.59;;;6.01;86.67
44872;BME280;30602;51.060;17.226;2023-04-19T09:17:15;101897.33;;;5.88;86.87
44872;BME280;30602;51.060;17.226;2023-04-19T09:20:54;101894.80;;;5.95;86.67
44872;BME280;30602;51.060;17.226;2023-04-19T09:24:40;101894.94;;;5.94;86.35
44872;BME280;30602;51.060;17.226;2023-04-19T09:28:24;101893.05;;;5.70;86.73
44872;BME280;30602;51.060;17.226;2023-04-19T09:32:14;101892.84;;;5.75;87.07
44872;BME280;30602;51.060;17.226;2023-04-19T09:36:00;101887.98;;;5.81;87.29
44872;BME280;30602;51.060;17.226;2023-04-19T09:43:48;101888.18;;;5.91;87.89
44872;BME280;30602;51.060;17.226;2023-04-19T09:47:25;101890.64;;;5.80;87.58
44872;BME280;30602;51.060;17.226;2023-04-19T09:50:56;101898.70;;;5.83;88.45
44872;BME280;30602;51.060;17.226;2023-04-19T09:54:33;101897.78;;;5.84;88.64
44872;BME280;30602;51.060;17.226;2023-04-19T09:58:24;101881.75;;;5.67;87.98
44872;BME280;30602;51.060;17.226;2023-04-19T10:02:10;101895.71;;;5.73;88.46
44872;BME280;30602;51.060;17.226;2023-04-19T10:05:50;101891.84;;;5.82;88.97
44872;BME280;30602;51.060;17.226;2023-04-19T10:09:13;101892.03;;;5.66;88.32
44872;BME280;30602;51.060;17.226;2023-04-19T10:13:07;101890.64;;;5.61;88.35
44872;BME280;30602;51.060;17.226;2023-04-19T10:16:30;101880.14;;;5.77;89.32
44872;BME280;30602;51.060;17.226;2023-04-19T10:20:16;101893.23;;;5.71;88.37
44872;BME280;30602;51.060;17.226;2023-04-19T10:24:15;101890.19;;;5.79;88.82
44872;BME280;30602;51.060;17.226;2023-04-19T10:27:58;101885.33;;;5.87;88.45
44872;BME280;30602;51.060;17.226;2023-04-19T10:35:36;101881.48;;;5.95;87.86
44872;BME280;30602;51.060;17.226;2023-04-19T10:39:01;101877.70;;;6.00;88.32
44872;BME280;30602;51.060;17.226;2023-04-19T10:50:57;101879.97;;;5.92;87.86
44872;BME280;30602;51.060;17.226;2023-04-19T10:55:18;101876.26;;;5.85;88.22
44872;BME280;30602;51.060;17.226;2023-04-19T11:02:29;101870.09;;;5.93;89.12
44872;BME280;30602;51.060;17.226;2023-04-19T11:06:18;101873.20;;;6.05;89.95
44872;BME280;30602;51.060;17.226;2023-04-19T11:10:29;101871.46;;;6.03;89.41
44872;BME280;30602;51.060;17.226;2023-04-19T11:14:26;101867.66;;;6.15;89.53
44872;BME280;30602;51.060;17.226;2023-04-19T11:18:45;101819.27;;;5.89;88.74
44872;BME280;30602;51.060;17.226;2023-04-19T11:23:01;101858.11;;;6.07;89.12
44872;BME280;30602;51.060;17.226;2023-04-19T11:26:43;101857.00;;;6.06;89.05
44872;BME280;30602;51.060;17.226;2023-04-19T11:30:10;101858.91;;;6.10;89.53
44872;BME280;30602;51.060;17.226;2023-04-19T11:34:38;101865.35;;;6.16;89.71
44872;BME280;30602;51.060;17.226;2023-04-19T11:39:14;101863.30;;;6.21;90.14
44872;BME280;30602;51.060;17.226;2023-04-19T11:43:11;101864.71;;;6.15;90.41
44872;BME280;30602;51.060;17.226;2023-04-19T11:46:57;101860.07;;;6.18;90.91
44872;BME280;30602;51.060;17.226;2023-04-19T11:50:44;101859.76;;;6.22;92.27
44872;BME280;30602;51.060;17.226;2023-04-19T11:59:19;101870.85;;;6.00;92.51
44872;BME280;30602;51.060;17.226;2023-04-19T12:02:44;101875.47;;;6.08;93.09
44872;BME280;30602;51.060;17.226;2023-04-19T12:06:32;101868.98;;;6.31;92.91
44872;BME280;30602;51.060;17.226;2023-04-19T12:18:22;101874.33;;;5.92;93.38
44872;BME280;30602;51.060;17.226;2023-04-19T12:22:23;101876.10;;;5.95;94.46
44872;BME280;30602;51.060;17.226;2023-04-19T12:27:01;101879.06;;;6.05;94.64
44872;BME280;30602;51.060;17.226;2023-04-19T12:30:38;101867.07;;;5.92;94.32
44872;BME280;30602;51.060;17.226;2023-04-19T12:33:57;101873.01;;;5.98;94.88
44872;BME280;30602;51.060;17.226;2023-04-19T12:37:21;101869.95;;;6.04;95.29
44872;BME280;30602;51.060;17.226;2023-04-19T12:41:15;101867.25;;;6.02;95.62
44872;BME280;30602;51.060;17.226;2023-04-19T12:48:38;101843.12;;;5.80;95.43
44872;BME280;30602;51.060;17.226;2023-04-19T12:51:59;101865.66;;;5.91;95.14
44872;BME280;30602;51.060;17.226;2023-04-19T12:55:50;101868.46;;;5.93;95.21
44872;BME280;30602;51.060;17.226;2023-04-19T12:59:29;101866.39;;;5.97;95.82
44872;BME280;30602;51.060;17.226;2023-04-19T13:03:27;101868.52;;;5.69;95.02
44872;BME280;30602;51.060;17.226;2023-04-19T13:06:53;101867.99;;;5.69;94.92
44872;BME280;30602;51.060;17.226;2023-04-19T13:10:44;101874.30;;;5.49;94.45
44872;BME280;30602;51.060;17.226;2023-04-19T13:14:13;101875.60;;;5.62;94.97
44872;BME280;30602;51.060;17.226;2023-04-19T13:17:41;101873.07;;;5.60;94.76
44872;BME280;30602;51.060;17.226;2023-04-19T13:21:23;101875.75;;;5.54;94.26
44872;BME280;30602;51.060;17.226;2023-04-19T13:25:09;101879.14;;;5.58;94.56
44872;BME280;30602;51.060;17.226;2023-04-19T13:28:31;101875.87;;;5.65;94.47
44872;BME280;30602;51.060;17.226;2023-04-19T13:31:54;101872.41;;;5.68;92.97
44872;BME280;30602;51.060;17.226;2023-04-19T13:35:38;101869.66;;;5.75;93.12
44872;BME280;30602;51.060;17.226;2023-04-19T13:39:13;101870.92;;;5.67;91.96
44872;BME280;30602;51.060;17.226;2023-04-19T13:42:59;101868.69;;;5.82;91.49
44872;BME280;30602;51.060;17.226;2023-04-19T13:47:05;101870.67;;;5.95;91.01
44872;BME280;30602;51.060;17.226;2023-04-19T13:50:25;101866.02;;;5.94;90.48
44872;BME280;30602;51.060;17.226;2023-04-19T13:54:14;101865.98;;;5.98;90.35
44872;BME280;30602;51.060;17.226;2023-04-19T13:57:40;101857.37;;;6.09;90.80
44872;BME280;30602;51.060;17.226;2023-04-19T14:01:54;101852.66;;;6.17;89.87
44872;BME280;30602;51.060;17.226;2023-04-19T14:05:37;101856.72;;;6.19;88.98
44872;BME280;30602;51.060;17.226;2023-04-19T14:09:02;101858.27;;;6.35;89.19
44872;BME280;30602;51.060;17.226;2023-04-19T14:12:44;101857.13;;;6.26;89.47
44872;BME280;30602;51.060;17.226;2023-04-19T14:16:25;101855.05;;;6.15;88.62
44872;BME280;30602;51.060;17.226;2023-04-19T14:19:50;101855.83;;;6.16;89.21
44872;BME280;30602;51.060;17.226;2023-04-19T14:23:39;101857.08;;;6.08;89.52
44872;BME280;30602;51.060;17.226;2023-04-19T14:27:24;101845.23;;;5.93;90.29
44872;BME280;30602;51.060;17.226;2023-04-19T14:31:48;101853.98;;;6.10;90.09
44872;BME280;30602;51.060;17.226;2023-04-19T14:35:53;101856.09;;;6.26;90.26
44872;BME280;30602;51.060;17.226;2023-04-19T14:39:37;101859.61;;;6.19;89.45
44872;BME280;30602;51.060;17.226;2023-04-19T14:43:26;101844.43;;;6.21;90.66
44872;BME280;30602;51.060;17.226;2023-04-19T14:47:06;101854.20;;;6.15;88.58
44872;BME280;30602;51.060;17.226;2023-04-19T14:55:06;101857.57;;;6.25;87.87
44872;BME280;30602;51.060;17.226;2023-04-19T15:02:51;101856.88;;;6.26;87.38
44872;BME280;30602;51.060;17.226;2023-04-19T15:06:20;101857.05;;;6.28;88.23
44872;BME280;30602;51.060;17.226;2023-04-19T15:09:46;101838.09;;;6.04;87.59
44872;BME280;30602;51.060;17.226;2023-04-19T15:13:44;101856.73;;;6.14;88.59
44872;BME280;30602;51.060;17.226;2023-04-19T15:17:38;101857.34;;;6.36;86.67
44872;BME280;30602;51.060;17.226;2023-04-19T15:21:30;101850.98;;;6.33;85.96
44872;BME280;30602;51.060;17.226;2023-04-19T15:25:21;101856.97;;;6.42;86.18
44872;BME280;30602;51.060;17.226;2023-04-19T15:29:33;101859.01;;;6.36;86.28
44872;BME280;30602;51.060;17.226;2023-04-19T15:33:23;101861.03;;;6.45;86.30
44872;BME280;30602;51.060;17.226;2023-04-19T15:36:43;101863.61;;;6.31;86.26
44872;BME280;30602;51.060;17.226;2023-04-19T15:40:03;101860.99;;;6.25;87.14
44872;BME280;30602;51.060;17.226;2023-04-19T15:43:47;101855.04;;;6.22;86.98
44872;BME280;30602;51.060;17.226;2023-04-19T15:47:19;101854.69;;;6.26;86.94
44872;BME280;30602;51.060;17.226;2023-04-19T15:51:05;101855.51;;;6.27;87.11
44872;BME280;30602;51.060;17.226;2023-04-19T15:54:36;101864.18;;;6.25;87.00
44872;BME280;30602;51.060;17.226;2023-04-19T15:57:57;101866.36;;;6.21;85.74
44872;BME280;30602;51.060;17.226;2023-04-19T16:01:38;101868.98;;;6.21;86.87
44872;BME280;30602;51.060;17.226;2023-04-19T16:05:23;101871.60;;;6.29;86.36
44872;BME280;30602;51.060;17.226;2023-04-19T16:08:42;101868.30;;;6.57;87.42
44872;BME280;30602;51.060;17.226;2023-04-19T16:12:23;101871.37;;;6.40;86.02
44872;BME280;30602;51.060;17.226;2023-04-19T16:16:14;101871.83;;;6.23;86.09
44872;BME280;30602;51.060;17.226;2023-04-19T16:19:35;101872.27;;;6.28;86.18
44872;BME280;30602;51.060;17.226;2023-04-19T16:23:25;101870.23;;;6.26;87.11
44872;BME280;30602;51.060;17.226;2023-04-19T16:27:08;101874.84;;;6.25;88.09
44872;BME280;30602;51.060;17.226;2023-04-19T16:30:52;101877.37;;;6.31;87.63
44872;BME280;30602;51.060;17.226;2023-04-19T16:34:42;101866.95;;;6.13;86.93
44872;BME280;30602;51.060;17.226;2023-04-19T16:38:29;101883.46;;;6.18;86.81
44872;BME280;30602;51.060;17.226;2023-04-19T16:42:11;101884.37;;;6.02;87.12
44872;BME280;30602;51.060;17.226;2023-04-19T16:45:54;101886.17;;;6.01;87.56
44872;BME280;30602;51.060;17.226;2023-04-19T16:49:20;101891.13;;;6.01;87.85
44872;BME280;30602;51.060;17.226;2023-04-19T16:53:06;101886.73;;;6.03;87.98
44872;BME280;30602;51.060;17.226;2023-04-19T16:56:24;101899.55;;;6.19;87.52
44872;BME280;30602;51.060;17.226;2023-04-19T17:00:07;101903.34;;;6.13;88.24
44872;BME280;30602;51.060;17.226;2023-04-19T17:03:57;101895.94;;;6.20;88.25
44872;BME280;30602;51.060;17.226;2023-04-19T17:07:19;101900.08;;;6.15;87.86
44872;BME280;30602;51.060;17.226;2023-04-19T17:10:38;101898.35;;;6.14;88.70
44872;BME280;30602;51.060;17.226;2023-04-19T17:14:20;101883.58;;;6.04;89.58
44872;BME280;30602;51.060;17.226;2023-04-19T17:18:02;101902.93;;;6.10;89.33
44872;BME280;30602;51.060;17.226;2023-04-19T17:21:43;101901.84;;;6.09;89.28
44872;BME280;30602;51.060;17.226;2023-04-19T17:25:14;101901.19;;;6.04;89.31
44872;BME280;30602;51.060;17.226;2023-04-19T17:32:40;101901.83;;;5.95;89.95
44872;BME280;30602;51.060;17.226;2023-04-19T17:37:01;101898.95;;;5.92;90.22
44872;BME280;30602;51.060;17.226;2023-04-19T17:40:40;101905.12;;;5.95;89.56
44872;BME280;30602;51.060;17.226;2023-04-19T17:44:02;101907.60;;;6.02;88.89
44872;BME280;30602;51.060;17.226;2023-04-19T17:47:54;101906.79;;;5.97;88.65
44872;BME280;30602;51.060;17.226;2023-04-19T17:51:29;101908.65;;;5.96;89.37
44872;BME280;30602;51.060;17.226;2023-04-19T17:55:29;101916.09;;;5.96;89.86
44872;BME280;30602;51.060;17.226;2023-04-19T17:59:02;101922.03;;;5.93;89.77
44872;BME280;30602;51.060;17.226;2023-04-19T18:02:24;101928.25;;;5.96;89.96
44872;BME280;30602;51.060;17.226;2023-04-19T18:05:53;101921.62;;;5.86;90.91
44872;BME280;30602;51.060;17.226;2023-04-19T18:09:25;101936.00;;;5.93;90.85
44872;BME280;30602;51.060;17.226;2023-04-19T18:13:53;101937.44;;;5.93;91.79
44872;BME280;30602;51.060;17.226;2023-04-19T18:17:14;101946.45;;;5.91;90.77
44872;BME280;30602;51.060;17.226;2023-04-19T18:21:03;101953.27;;;5.90;92.15
44872;BME280;30602;51.060;17.226;2023-04-19T18:24:57;101952.88;;;5.91;93.28
44872;BME280;30602;51.060;17.226;2023-04-19T18:28:45;101958.41;;;5.93;94.39
44872;BME280;30602;51.060;17.226;2023-04-19T18:32:26;101949.42;;;5.95;95.46
44872;BME280;30602;51.060;17.226;2023-04-19T18:36:10;101950.30;;;5.98;95.95
44872;BME280;30602;51.060;17.226;2023-04-19T18:39:55;101955.95;;;5.95;96.13
44872;BME280;30602;51.060;17.226;2023-04-19T18:43:20;101946.66;;;5.83;96.73
44872;BME280;30602;51.060;17.226;2023-04-19T18:47:09;101953.38;;;5.86;96.71
44872;BME280;30602;51.060;17.226;2023-04-19T18:50:57;101942.72;;;5.75;95.21
44872;BME280;30602;51.060;17.226;2023-04-19T18:54:19;101954.51;;;5.80;94.61
44872;BME280;30602;51.060;17.226;2023-04-19T18:58:03;101959.78;;;5.83;94.72
44872;BME280;30602;51.060;17.226;2023-04-19T19:01:49;101954.87;;;5.75;94.35
44872;BME280;30602;51.060;17.226;2023-04-19T19:05:39;101943.37;;;5.68;93.29
44872;BME280;30602;51.060;17.226;2023-04-19T19:09:23;101958.22;;;5.72;95.04
44872;BME280;30602;51.060;17.226;2023-04-19T19:13:59;101955.57;;;5.69;94.00
44872;BME280;30602;51.060;17.226;2023-04-19T19:17:57;101950.81;;;5.52;94.55
44872;BME280;30602;51.060;17.226;2023-04-19T19:21:33;101957.01;;;5.57;94.05
44872;BME280;30602;51.060;17.226;2023-04-19T19:25:16;101963.87;;;5.60;93.54
44872;BME280;30602;51.060;17.226;2023-04-19T19:28:36;101970.92;;;5.60;94.62
44872;BME280;30602;51.060;17.226;2023-04-19T19:32:00;101967.59;;;5.59;95.84
44872;BME280;30602;51.060;17.226;2023-04-19T19:36:05;101970.59;;;5.50;95.86
44872;BME280;30602;51.060;17.226;2023-04-19T19:43:52;101973.20;;;5.48;98.19
44872;BME280;30602;51.060;17.226;2023-04-19T19:48:54;101980.32;;;5.50;99.07
44872;BME280;30602;51.060;17.226;2023-04-19T19:52:43;101980.55;;;5.43;99.64
44872;BME280;30602;51.060;17.226;2023-04-19T19:56:57;101985.30;;;5.46;98.62
44872;BME280;30602;51.060;17.226;2023-04-19T20:00:45;101983.12;;;5.50;98.48
44872;BME280;30602;51.060;17.226;2023-04-19T20:05:15;101960.03;;;5.28;98.11
44872;BME280;30602;51.060;17.226;2023-04-19T20:08:34;101981.78;;;5.45;98.73
44872;BME280;30602;51.060;17.226;2023-04-19T20:11:55;101971.36;;;5.36;98.26
44872;BME280;30602;51.060;17.226;2023-04-19T20:15:56;101981.34;;;5.45;98.90
44872;BME280;30602;51.060;17.226;2023-04-19T20:20:08;101978.93;;;5.44;99.49
44872;BME280;30602;51.060;17.226;2023-04-19T20:24:15;101984.05;;;5.46;98.85
44872;BME280;30602;51.060;17.226;2023-04-19T20:27:41;101992.19;;;5.44;98.28
44872;BME280;30602;51.060;17.226;2023-04-19T20:32:18;101990.38;;;5.45;99.00
44872;BME280;30602;51.060;17.226;2023-04-19T20:35:59;101990.03;;;5.43;99.73
44872;BME280;30602;51.060;17.226;2023-04-19T20:39:27;101993.95;;;5.36;98.66
44872;BME280;30602;51.060;17.226;2023-04-19T20:43:16;101987.45;;;5.33;98.39
44872;BME280;30602;51.060;17.226;2023-04-19T20:47:11;101980.48;;;5.26;99.66
44872;BME280;30602;51.060;17.226;2023-04-19T20:50:45;101981.07;;;5.18;99.51
44872;BME280;30602;51.060;17.226;2023-04-19T20:54:19;101983.45;;;5.18;99.73
44872;BME280;30602;51.060;17.226;2023-04-19T20:58:37;101981.25;;;5.16;100.00
44872;BME280;30602;51.060;17.226;2023-04-19T21:03:10;101994.38;;;5.23;99.72
44872;BME280;30602;51.060;17.226;2023-04-19T21:06:58;101987.16;;;5.36;98.95
44872;BME280;30602;51.060;17.226;2023-04-19T21:10:44;101982.87;;;5.20;100.00